Time;durP1;ratioP1;P1;durP2;ratioP2;P2;SDS_P1;SDS_P2;PMS_P1;PMS_P2;Temp;Humidity;BMP_temperature;BMP_pressure;BME280_temperature;BME280_humidity;BME280_pressure;Samples;Min_cycle;Max_cycle;Signal;HPM_P1;HPM_P2
2022/03/16 00:01:09;;;;;;;79.20;41.70;;;;;;;3.28;95.64;102396.03;5025993;28;20028;-67
2022/03/16 00:03:34;;;;;;;71.45;41.65;;;;;;;3.27;95.79;102397.88;5026044;28;20033;-67
2022/03/16 00:06:00;;;;;;;70.80;41.15;;;;;;;3.26;95.52;102395.31;5025281;28;20056;-67
2022/03/16 00:08:29;;;;;;;72.13;40.30;;;;;;;3.28;96.20;102398.72;5025720;28;20041;-67
2022/03/16 00:10:56;;;;;;;69.40;38.97;;;;;;;3.17;95.85;102397.03;5024564;28;20534;-67
2022/03/16 00:13:21;;;;;;;51.95;33.45;;;;;;;3.05;95.00;102399.06;5026437;28;20030;-67
2022/03/16 00:15:46;;;;;;;66.07;38.50;;;;;;;3.00;95.57;102401.34;5025698;28;20033;-67
2022/03/16 00:18:13;;;;;;;64.63;38.03;;;;;;;2.97;96.48;102398.03;5024565;28;20038;-67
2022/03/16 00:20:38;;;;;;;65.72;38.03;;;;;;;2.95;96.41;102405.47;5026231;28;20022;-66
2022/03/16 00:23:05;;;;;;;63.70;36.53;;;;;;;2.91;96.39;102399.47;5025275;28;20040;-69
2022/03/16 00:25:30;;;;;;;66.47;37.55;;;;;;;2.90;96.56;102405.91;5025394;28;20040;-67
2022/03/16 00:27:55;;;;;;;74.18;40.75;;;;;;;2.89;97.07;102404.19;5025262;28;20408;-67
2022/03/16 00:30:21;;;;;;;79.68;43.42;;;;;;;2.91;97.60;102399.47;5025625;28;20026;-67
2022/03/16 00:32:46;;;;;;;73.50;40.17;;;;;;;2.89;97.44;102403.31;5025241;28;20562;-67
2022/03/16 00:35:11;;;;;;;69.35;39.90;;;;;;;2.86;97.57;102405.31;5025131;28;20038;-66
2022/03/16 00:37:36;;;;;;;70.25;38.70;;;;;;;2.85;97.47;102406.34;5024882;28;20061;-67
2022/03/16 00:40:02;;;;;;;78.80;39.72;;;;;;;2.83;97.62;102405.59;5025372;28;20021;-67
2022/03/16 00:42:27;;;;;;;73.55;40.60;;;;;;;2.80;97.88;102407.75;5007085;28;20601;-67
2022/03/16 00:44:53;;;;;;;66.32;39.45;;;;;;;2.81;97.73;102407.59;5023563;28;20439;-67
2022/03/16 00:47:18;;;;;;;72.57;39.78;;;;;;;2.79;98.00;102409.63;5024455;28;20052;-67
2022/03/16 00:49:43;;;;;;;77.43;41.88;;;;;;;2.80;98.06;102410.47;5025680;28;20025;-67
2022/03/16 00:52:09;;;;;;;72.25;40.03;;;;;;;2.77;98.57;102416.16;5021897;28;20036;-67
2022/03/16 00:54:35;;;;;;;72.47;39.28;;;;;;;2.76;98.44;102411.75;5025248;28;20025;-67
2022/03/16 00:57:01;;;;;;;74.03;40.50;;;;;;;2.73;98.69;102407.44;5024768;28;20053;-67
2022/03/16 00:59:26;;;;;;;70.47;39.45;;;;;;;2.69;98.58;102405.19;5024690;28;20443;-67
2022/03/16 01:01:51;;;;;;;68.03;38.42;;;;;;;2.64;98.15;102402.03;5024644;28;20053;-67
2022/03/16 01:04:16;;;;;;;72.93;39.85;;;;;;;2.58;98.09;102408.84;5023792;28;20037;-66
2022/03/16 01:06:42;;;;;;;73.50;41.25;;;;;;;2.56;98.56;102394.59;5023325;28;20037;-67
2022/03/16 01:09:07;;;;;;;87.70;45.40;;;;;;;2.57;98.63;102399.00;5025184;28;20026;-67
2022/03/16 01:11:32;;;;;;;82.90;43.85;;;;;;;2.64;99.19;102399.31;5024435;28;20100;-66
2022/03/16 01:13:57;;;;;;;96.93;50.55;;;;;;;2.74;99.96;102405.63;5024885;28;20496;-67
2022/03/16 01:16:23;;;;;;;95.75;48.75;;;;;;;2.79;100.00;102395.19;5023915;28;20120;-67
2022/03/16 01:18:48;;;;;;;75.18;41.55;;;;;;;2.69;99.96;102387.06;5023558;28;20523;-67
2022/03/16 01:21:13;;;;;;;77.03;42.30;;;;;;;2.63;99.47;102393.00;5023457;28;20434;-66
2022/03/16 01:23:39;;;;;;;64.22;38.50;;;;;;;2.54;99.15;102393.88;5024823;28;20052;-66
2022/03/16 01:26:04;;;;;;;77.50;40.90;;;;;;;2.50;98.84;102389.72;5024748;28;20163;-66
2022/03/16 01:28:30;;;;;;;60.20;36.30;;;;;;;2.41;98.77;102385.13;5023964;28;20064;-66
2022/03/16 01:30:55;;;;;;;67.30;38.35;;;;;;;2.37;98.77;102387.25;5023999;28;20033;-66
2022/03/16 01:33:20;;;;;;;72.30;39.60;;;;;;;2.36;99.18;102379.28;5024222;28;20164;-66
2022/03/16 01:35:46;;;;;;;80.78;42.65;;;;;;;2.37;99.44;102381.84;5023409;28;20022;-65
2022/03/16 01:38:11;;;;;;;80.60;42.08;;;;;;;2.38;99.99;102378.13;5024176;28;20036;-66
2022/03/16 01:40:36;;;;;;;76.20;42.15;;;;;;;2.36;99.71;102374.72;5024369;28;20026;-68
2022/03/16 01:43:01;;;;;;;89.00;46.83;;;;;;;2.42;100.00;102379.56;5024391;28;20516;-68
2022/03/16 01:45:27;;;;;;;86.93;46.50;;;;;;;2.52;100.00;102374.16;5023500;28;20037;-69
2022/03/16 01:47:52;;;;;;;88.15;47.28;;;;;;;2.56;100.00;102368.31;5024454;28;20032;-71
2022/03/16 01:50:17;;;;;;;87.70;47.45;;;;;;;2.64;100.00;102366.78;5024245;28;20035;-69
2022/03/16 01:52:43;;;;;;;90.60;48.50;;;;;;;2.68;100.00;102369.03;5022303;28;20057;-68
2022/03/16 01:55:09;;;;;;;84.50;45.47;;;;;;;2.69;100.00;102368.06;5024537;28;20033;-69
2022/03/16 01:57:35;;;;;;;88.65;48.60;;;;;;;2.77;100.00;102365.47;5024101;28;20034;-68
2022/03/16 02:00:04;;;;;;;82.88;45.92;;;;;;;2.76;100.00;102350.19;5024096;28;20176;-69
2022/03/16 02:02:29;;;;;;;87.88;47.10;;;;;;;2.82;100.00;102355.06;5023314;28;20030;-69
2022/03/16 02:04:54;;;;;;;75.82;45.05;;;;;;;2.84;100.00;102347.66;5023295;28;20029;-68
2022/03/16 02:07:19;;;;;;;88.15;46.17;;;;;;;2.88;100.00;102345.47;5022132;28;20029;-69
2022/03/16 02:09:45;;;;;;;82.20;48.15;;;;;;;2.98;100.00;102343.63;5023338;28;20025;-68
2022/03/16 02:12:13;;;;;;;85.03;47.17;;;;;;;3.05;100.00;102341.19;5023168;28;20106;-68
2022/03/16 02:14:38;;;;;;;80.70;46.40;;;;;;;3.01;100.00;102340.63;5016007;28;20069;-69
2022/03/16 02:17:04;;;;;;;84.82;47.30;;;;;;;2.99;100.00;102344.47;5023513;28;20459;-69
2022/03/16 02:19:29;;;;;;;81.18;46.88;;;;;;;2.95;100.00;102338.50;5023507;28;20391;-69
2022/03/16 02:22:00;;;;;;;81.10;46.28;;;;;;;2.96;100.00;102333.91;5022589;28;20109;-69
2022/03/16 02:24:26;;;;;;;81.38;46.58;;;;;;;2.96;100.00;102323.06;5023229;28;20021;-68
2022/03/16 02:26:51;;;;;;;72.13;44.40;;;;;;;2.94;100.00;102327.75;5023101;28;20248;-69
2022/03/16 02:29:17;;;;;;;85.47;47.10;;;;;;;2.99;100.00;102329.06;5023285;28;20138;-69
2022/03/16 02:31:42;;;;;;;79.50;46.60;;;;;;;2.95;100.00;102324.06;5022794;28;20032;-69
2022/03/16 02:34:08;;;;;;;76.65;44.60;;;;;;;2.98;100.00;102321.91;5023571;28;20104;-69
2022/03/16 02:36:33;;;;;;;86.68;48.50;;;;;;;3.02;100.00;102317.06;5022271;28;20368;-69
2022/03/16 02:38:58;;;;;;;85.40;47.45;;;;;;;3.10;100.00;102320.75;5023057;28;20728;-69
2022/03/16 02:41:24;;;;;;;79.97;47.40;;;;;;;3.11;100.00;102322.47;5022613;28;20025;-69
2022/03/16 02:43:49;;;;;;;82.47;47.30;;;;;;;3.10;100.00;102320.75;5022900;28;20092;-68
2022/03/16 02:46:15;;;;;;;82.82;48.38;;;;;;;3.09;100.00;102324.47;5022335;28;20041;-68
2022/03/16 02:48:40;;;;;;;78.18;46.25;;;;;;;3.05;100.00;102322.19;5023173;28;20091;-69
2022/03/16 02:51:05;;;;;;;78.88;45.90;;;;;;;3.03;100.00;102330.47;5022434;28;20026;-69
2022/03/16 02:53:30;;;;;;;77.43;43.38;;;;;;;3.04;100.00;102320.47;5023104;28;20503;-69
2022/03/16 02:55:56;;;;;;;74.25;46.67;;;;;;;3.07;100.00;102320.19;5022646;28;20049;-69
2022/03/16 02:58:22;;;;;;;83.97;47.33;;;;;;;3.09;100.00;102329.91;5022681;28;20045;-69
2022/03/16 03:03:15;;;;;;;79.20;46.75;;;;;;;3.09;100.00;102329.91;5032914;28;20079;-66
2022/03/16 03:05:40;;;;;;;80.60;47.50;;;;;;;3.06;100.00;102322.03;5062576;28;20028;-67
2022/03/16 03:08:05;;;;;;;77.90;46.92;;;;;;;3.01;100.00;102327.06;5063116;28;20517;-67
2022/03/16 03:10:30;;;;;;;77.43;46.35;;;;;;;2.98;100.00;102324.63;5060988;28;20115;-66
2022/03/16 03:12:56;;;;;;;80.93;45.88;;;;;;;2.98;100.00;102315.63;5045206;28;20108;-66
2022/03/16 03:15:21;;;;;;;86.00;47.80;;;;;;;2.97;100.00;102320.19;5044338;28;20108;-66
2022/03/16 03:17:46;;;;;;;76.03;46.65;;;;;;;2.93;100.00;102321.47;5053542;28;20490;-66
2022/03/16 03:20:13;;;;;;;78.30;47.20;;;;;;;2.89;100.00;102311.94;5042898;28;20040;-66
2022/03/16 03:22:39;;;;;;;76.47;45.95;;;;;;;2.84;100.00;102314.22;5042327;28;20048;-65
2022/03/16 03:25:10;;;;;;;76.63;47.15;;;;;;;2.81;100.00;102315.34;5043821;28;20028;-66
2022/03/16 03:27:35;;;;;;;77.78;46.95;;;;;;;2.82;100.00;102316.22;5065298;28;20032;-66
2022/03/16 03:30:00;;;;;;;76.95;46.85;;;;;;;2.78;100.00;102315.63;5066917;28;20432;-66
2022/03/16 03:32:25;;;;;;;78.07;45.55;;;;;;;2.76;100.00;102316.78;5052820;28;20036;-66
2022/03/16 03:34:51;;;;;;;77.38;46.08;;;;;;;2.75;100.00;102315.09;5046916;28;20664;-66
2022/03/16 03:37:18;;;;;;;77.07;46.13;;;;;;;2.73;100.00;102322.50;5045592;28;20059;-67
2022/03/16 03:39:44;;;;;;;77.47;45.92;;;;;;;2.73;100.00;102330.63;5046825;28;20021;-66
2022/03/16 03:42:10;;;;;;;75.80;47.20;;;;;;;2.74;100.00;102330.50;5045966;28;20029;-65
2022/03/16 03:44:38;;;;;;;88.97;50.67;;;;;;;2.78;100.00;102326.50;5047498;28;20526;-66
2022/03/16 03:47:05;;;;;;;82.15;48.95;;;;;;;2.79;100.00;102328.22;5046740;28;20028;-66
2022/03/16 03:49:32;;;;;;;78.47;47.50;;;;;;;2.79;100.00;102321.94;5046113;28;20117;-66
2022/03/16 03:51:57;;;;;;;80.80;48.38;;;;;;;2.77;100.00;102321.22;5045877;28;20029;-66
2022/03/16 03:54:23;;;;;;;76.05;46.38;;;;;;;2.78;100.00;102314.78;5046412;28;20036;-66
2022/03/16 03:56:48;;;;;;;81.00;47.72;;;;;;;2.77;100.00;102318.50;5046240;28;20483;-66
2022/03/16 03:59:13;;;;;;;75.93;46.78;;;;;;;2.79;100.00;102321.94;5044767;28;20020;-65
2022/03/16 04:01:38;;;;;;;83.63;49.85;;;;;;;2.81;100.00;102328.06;5045865;28;20053;-66
2022/03/16 04:04:04;;;;;;;78.95;48.83;;;;;;;2.81;100.00;102322.66;5046835;28;20344;-66
2022/03/16 04:06:29;;;;;;;81.90;48.88;;;;;;;2.82;100.00;102327.06;5044839;28;20041;-66
2022/03/16 04:08:54;;;;;;;86.75;50.35;;;;;;;2.82;100.00;102327.91;5046242;28;20036;-66
2022/03/16 04:11:19;;;;;;;80.50;49.63;;;;;;;2.79;100.00;102322.78;5045747;28;20106;-66
2022/03/16 04:13:44;;;;;;;78.05;47.75;;;;;;;2.77;100.00;102316.63;5060180;28;20024;-67
2022/03/16 04:16:10;;;;;;;80.47;48.28;;;;;;;2.75;100.00;102315.09;5025358;28;20459;-66
2022/03/16 04:18:35;;;;;;;79.78;48.30;;;;;;;2.73;100.00;102319.78;5055761;28;20060;-66
2022/03/16 04:21:00;;;;;;;80.60;49.10;;;;;;;2.70;100.00;102322.78;5045212;28;20063;-66
2022/03/16 04:23:25;;;;;;;82.72;49.88;;;;;;;2.72;100.00;102326.22;5045288;28;20455;-66
2022/03/16 04:25:51;;;;;;;82.75;50.00;;;;;;;2.71;100.00;102327.22;5064053;28;20032;-66
2022/03/16 04:28:16;;;;;;;91.40;52.25;;;;;;;2.73;100.00;102326.06;5058605;28;20155;-66
2022/03/16 04:30:41;;;;;;;83.55;50.15;;;;;;;2.74;100.00;102322.38;5045200;28;20032;-66
2022/03/16 04:33:06;;;;;;;85.15;51.72;;;;;;;2.74;100.00;102325.09;5035175;28;20168;-67
2022/03/16 04:35:32;;;;;;;86.97;52.08;;;;;;;2.74;100.00;102332.38;5024908;28;20040;-68
2022/03/16 04:37:57;;;;;;;87.18;52.05;;;;;;;2.73;100.00;102319.78;5054211;28;21202;-68
2022/03/16 04:40:22;;;;;;;93.00;54.30;;;;;;;2.75;100.00;102315.09;5063915;28;20106;-68
2022/03/16 04:42:47;;;;;;;95.50;53.47;;;;;;;2.76;100.00;102316.78;5065841;28;20031;-68
2022/03/16 04:45:13;;;;;;;90.80;51.30;;;;;;;2.77;100.00;102315.78;5065462;28;20060;-69
2022/03/16 04:47:38;;;;;;;89.40;53.50;;;;;;;2.76;100.00;102311.38;5064690;28;20025;-67
2022/03/16 04:50:05;;;;;;;86.97;52.90;;;;;;;2.75;100.00;102317.78;5065469;28;20048;-69
2022/03/16 04:52:31;;;;;;;89.75;52.78;;;;;;;2.73;100.00;102308.94;5051008;28;20033;-68
2022/03/16 04:54:56;;;;;;;91.80;52.17;;;;;;;2.77;100.00;102313.06;5045451;28;20032;-69
2022/03/16 04:57:21;;;;;;;89.63;53.85;;;;;;;2.77;100.00;102308.50;5044799;28;20095;-69
2022/03/16 04:59:46;;;;;;;95.97;53.88;;;;;;;2.78;100.00;102302.06;5045616;28;20057;-69
2022/03/16 05:02:12;;;;;;;91.93;54.28;;;;;;;2.78;100.00;102310.22;5044424;28;20041;-69
2022/03/16 05:04:37;;;;;;;94.45;55.72;;;;;;;2.79;100.00;102313.81;5027606;28;20447;-68
2022/03/16 05:07:02;;;;;;;88.85;53.47;;;;;;;2.77;100.00;102313.06;5043946;28;20028;-69
2022/03/16 05:09:27;;;;;;;86.65;51.60;;;;;;;2.77;100.00;102307.66;5045110;28;20033;-69
2022/03/16 05:11:53;;;;;;;92.75;54.33;;;;;;;2.77;100.00;102313.06;5045227;28;20083;-69
2022/03/16 05:14:18;;;;;;;94.47;55.33;;;;;;;2.77;100.00;102303.06;5053501;28;20642;-68
2022/03/16 05:16:43;;;;;;;92.70;54.15;;;;;;;2.76;100.00;102311.38;5062762;28;20048;-69
2022/03/16 05:19:08;;;;;;;85.40;52.55;;;;;;;2.74;100.00;102307.94;5048349;28;20039;-69
2022/03/16 05:21:34;;;;;;;92.05;53.47;;;;;;;2.75;100.00;102315.09;5044914;28;20459;-69
2022/03/16 05:23:59;;;;;;;94.25;54.83;;;;;;;2.75;100.00;102299.66;5053035;28;20028;-69
2022/03/16 05:26:24;;;;;;;100.13;55.08;;;;;;;2.80;100.00;102310.09;5055452;28;20052;-69
2022/03/16 05:28:52;;;;;;;91.10;52.85;;;;;;;2.76;100.00;102317.66;5044875;28;20033;-69
2022/03/16 05:31:17;;;;;;;93.53;53.25;;;;;;;2.77;100.00;102311.22;5044075;28;20048;-69
2022/03/16 05:33:43;;;;;;;92.82;52.95;;;;;;;2.76;100.00;102301.38;5043434;28;20553;-68
2022/03/16 05:36:08;;;;;;;89.53;49.55;;;;;;;2.76;100.00;102301.38;5043893;28;20103;-69
2022/03/16 05:38:33;;;;;;;86.80;50.22;;;;;;;2.79;100.00;102297.53;5046767;28;20505;-69
2022/03/16 05:40:58;;;;;;;84.22;50.15;;;;;;;2.79;100.00;102301.09;5056719;28;20028;-69
2022/03/16 05:43:23;;;;;;;88.90;48.78;;;;;;;2.81;100.00;102299.09;5044449;28;20033;-68
2022/03/16 05:45:50;;;;;;;82.65;47.58;;;;;;;2.82;100.00;102297.22;5047196;28;20032;-69
2022/03/16 05:48:15;;;;;;;80.85;47.72;;;;;;;2.92;100.00;102295.34;5063626;28;20051;-69
2022/03/16 05:50:44;;;;;;;81.43;46.95;;;;;;;2.88;100.00;102295.78;5047211;28;20035;-69
2022/03/16 05:53:10;;;;;;;77.40;45.65;;;;;;;2.89;100.00;102301.09;5059075;28;20033;-68
2022/03/16 05:55:35;;;;;;;79.88;45.88;;;;;;;2.88;100.00;102298.50;5064200;28;20121;-69
2022/03/16 05:58:00;;;;;;;76.05;44.35;;;;;;;2.94;100.00;102304.22;5063583;28;20474;-69
2022/03/16 06:00:25;;;;;;;70.05;44.03;;;;;;;2.95;100.00;102305.94;5062402;28;20036;-69
2022/03/16 06:02:51;;;;;;;70.40;42.22;;;;;;;2.99;100.00;102299.22;5048386;28;20450;-69
2022/03/16 06:05:16;;;;;;;74.55;43.78;;;;;;;3.00;100.00;102303.63;5042443;28;20044;-68
2022/03/16 06:07:42;;;;;;;64.43;39.97;;;;;;;3.03;100.00;102308.75;5045595;28;20079;-70
2022/03/16 06:10:10;;;;;;;64.35;38.45;;;;;;;3.09;100.00;102310.91;5064322;28;20035;-67
2022/03/16 06:12:53;;;;;;;64.72;37.08;;;;;;;3.16;100.00;102313.03;5063874;28;20040;-69
2022/03/16 06:15:19;;;;;;;63.28;36.53;;;;;;;3.24;100.00;102307.72;5053070;28;20502;-69
2022/03/16 06:17:44;;;;;;;54.03;34.03;;;;;;;3.33;100.00;102314.97;5054515;28;20037;-68
2022/03/16 06:20:10;;;;;;;54.47;33.45;;;;;;;3.42;100.00;102314.09;5046003;28;20527;-68
2022/03/16 06:22:35;;;;;;;56.45;33.63;;;;;;;3.49;100.00;102322.50;5052962;28;20039;-69
2022/03/16 06:25:00;;;;;;;50.38;30.77;;;;;;;3.58;100.00;102319.75;5061419;28;20116;-69
2022/03/16 06:27:25;;;;;;;47.20;30.98;;;;;;;3.71;100.00;102324.00;5063562;28;20039;-69
2022/03/16 06:29:51;;;;;;;49.75;30.65;;;;;;;3.76;100.00;102324.41;5063127;28;20550;-69
2022/03/16 06:32:16;;;;;;;47.88;28.85;;;;;;;3.81;100.00;102322.09;5022782;28;20075;-69
2022/03/16 06:34:41;;;;;;;48.72;30.52;;;;;;;3.90;99.40;102326.63;5023682;28;20057;-69
2022/03/16 06:37:07;;;;;;;48.05;27.85;;;;;;;4.00;99.18;102323.84;5022854;28;20109;-69
2022/03/16 06:39:32;;;;;;;43.67;26.88;;;;;;;4.06;99.18;102323.25;5056724;28;20051;-69
2022/03/16 06:41:57;;;;;;;41.35;26.15;;;;;;;4.14;98.28;102331.50;5063297;28;20024;-69
2022/03/16 06:44:22;;;;;;;42.60;26.75;;;;;;;4.20;98.25;102324.59;5061322;28;20040;-68
2022/03/16 06:46:48;;;;;;;42.40;25.45;;;;;;;4.27;97.83;102323.00;5057044;28;20047;-68
2022/03/16 06:49:14;;;;;;;38.40;24.60;;;;;;;4.32;97.78;102323.38;5043809;28;20368;-68
2022/03/16 06:51:39;;;;;;;40.55;25.15;;;;;;;4.39;97.25;102332.63;5047878;28;20444;-69
2022/03/16 06:54:04;;;;;;;38.88;24.48;;;;;;;4.46;96.33;102320.13;5060747;28;20716;-69
2022/03/16 06:56:29;;;;;;;35.85;24.30;;;;;;;4.53;96.61;102321.22;5042571;28;20046;-69
2022/03/16 06:58:55;;;;;;;38.25;23.55;;;;;;;4.64;96.43;102307.38;5051131;28;20040;-69
2022/03/16 07:01:20;;;;;;;36.53;22.75;;;;;;;4.90;95.51;102317.47;5046832;28;20099;-69
2022/03/16 07:03:45;;;;;;;33.08;21.65;;;;;;;5.14;94.45;102308.63;5042664;28;20113;-69
2022/03/16 07:06:11;;;;;;;31.88;21.67;;;;;;;5.35;94.03;102306.41;5041921;28;20033;-69
2022/03/16 07:08:36;;;;;;;34.50;21.25;;;;;;;5.56;92.56;102303.28;5056976;28;20057;-69
2022/03/16 07:11:02;;;;;;;34.97;22.13;;;;;;;5.68;92.25;102299.28;5046720;28;20028;-69
2022/03/16 07:13:27;;;;;;;31.50;20.52;;;;;;;5.78;91.31;102293.69;5062747;28;20017;-69
2022/03/16 07:15:52;;;;;;;40.08;20.98;;;;;;;5.82;90.57;102297.78;5062578;28;20028;-69
2022/03/16 07:18:19;;;;;;;30.95;19.42;;;;;;;5.92;90.83;102289.50;5062568;28;20020;-68
2022/03/16 07:20:46;;;;;;;29.65;19.85;;;;;;;6.06;89.99;102282.56;5049816;28;20036;-69
2022/03/16 07:23:17;;;;;;;34.85;21.15;;;;;;;6.19;89.55;102285.69;5043015;28;20018;-69
2022/03/16 07:25:45;;;;;;;32.28;20.85;;;;;;;6.30;88.28;102284.50;5042932;28;20036;-70
2022/03/16 07:28:11;;;;;;;30.00;18.90;;;;;;;6.38;87.86;102279.91;5042369;28;20070;-70
2022/03/16 07:30:38;;;;;;;30.20;18.33;;;;;;;6.47;86.64;102291.69;5040854;28;20040;-70
2022/03/16 07:33:04;;;;;;;28.52;18.45;;;;;;;6.51;86.46;102271.22;5043165;28;20021;-69
2022/03/16 07:35:30;;;;;;;27.48;18.33;;;;;;;6.58;86.56;102266.78;5047669;28;20043;-69
2022/03/16 07:37:56;;;;;;;26.55;17.00;;;;;;;6.65;85.44;102265.09;5045920;28;20515;-69
2022/03/16 07:40:23;;;;;;;28.45;18.42;;;;;;;6.72;84.61;102259.81;5040762;28;20029;-69
2022/03/16 07:42:50;;;;;;;30.23;18.13;;;;;;;6.80;84.84;102265.28;5042395;28;20103;-69
2022/03/16 07:45:18;;;;;;;27.83;18.00;;;;;;;6.94;84.48;102260.97;5042182;28;20032;-69
2022/03/16 07:47:44;;;;;;;26.00;18.13;;;;;;;7.10;83.89;102268.34;5040666;28;20150;-69
2022/03/16 07:50:09;;;;;;;42.45;18.75;;;;;;;7.25;82.84;102270.19;5041234;28;20029;-67
2022/03/16 07:52:35;;;;;;;27.95;17.05;;;;;;;7.39;81.81;102265.84;5042384;28;20056;-69
2022/03/16 07:55:01;;;;;;;29.00;18.95;;;;;;;7.53;82.45;102256.94;5039673;28;20052;-70
2022/03/16 07:57:26;;;;;;;27.50;18.02;;;;;;;7.74;81.74;102259.06;5041863;28;20112;-70
2022/03/16 07:59:52;;;;;;;25.83;17.75;;;;;;;7.91;79.85;102254.41;5039951;28;20025;-70
2022/03/16 08:02:17;;;;;;;27.25;16.77;;;;;;;8.03;78.73;102257.56;5047722;28;20127;-69
2022/03/16 08:04:43;;;;;;;24.42;16.95;;;;;;;8.15;78.50;102256.13;5049011;28;20044;-69
2022/03/16 08:07:09;;;;;;;27.10;17.83;;;;;;;8.29;78.47;102258.09;5018499;28;20033;-69
2022/03/16 08:09:35;;;;;;;24.73;17.58;;;;;;;8.49;77.03;102253.03;5040785;28;20039;-70
2022/03/16 08:12:01;;;;;;;28.67;18.08;;;;;;;8.52;76.33;102249.09;5043280;28;20045;-70
2022/03/16 08:14:26;;;;;;;26.13;16.88;;;;;;;8.62;76.07;102255.16;5042687;28;20075;-70
2022/03/16 08:16:52;;;;;;;27.85;17.23;;;;;;;8.79;76.43;102264.94;5029352;28;20052;-71
2022/03/16 08:19:19;;;;;;;24.65;16.83;;;;;;;9.17;74.55;102264.06;5034798;28;20566;-70
2022/03/16 08:21:45;;;;;;;24.30;16.02;;;;;;;9.45;72.88;102275.28;5036235;28;20068;-69
2022/03/16 08:24:10;;;;;;;24.42;16.50;;;;;;;9.60;71.79;102266.00;5031634;28;20049;-68
2022/03/16 08:26:35;;;;;;;25.98;17.63;;;;;;;9.73;72.83;102261.72;5033125;28;20037;-69
2022/03/16 08:29:00;;;;;;;25.73;16.52;;;;;;;9.67;71.66;102259.75;5044697;28;20032;-68
2022/03/16 08:31:26;;;;;;;25.90;16.55;;;;;;;9.44;72.00;102262.59;5042909;28;20514;-68
2022/03/16 08:33:51;;;;;;;25.83;16.83;;;;;;;9.29;71.63;102265.34;5037083;28;20018;-68
2022/03/16 08:36:17;;;;;;;27.80;17.90;;;;;;;9.42;72.86;102264.66;5024787;28;20434;-68
2022/03/16 08:38:42;;;;;;;26.27;16.98;;;;;;;9.72;72.09;102255.38;5031785;28;20032;-68
2022/03/16 08:41:08;;;;;;;25.92;18.27;;;;;;;9.99;70.69;102255.75;5037414;28;20025;-69
2022/03/16 08:43:34;;;;;;;24.80;17.35;;;;;;;10.53;69.11;102239.69;5040831;28;20082;-69
2022/03/16 08:46:00;;;;;;;25.88;17.77;;;;;;;11.18;66.05;102240.44;5037491;28;20040;-69
2022/03/16 08:48:26;;;;;;;26.48;17.70;;;;;;;11.62;65.31;102248.34;5032288;28;20032;-70
2022/03/16 08:50:51;;;;;;;24.70;17.40;;;;;;;12.18;64.00;102250.94;5027670;28;20025;-70
2022/03/16 08:53:17;;;;;;;25.85;16.65;;;;;;;12.08;60.83;102252.41;5038678;28;20375;-69
2022/03/16 08:55:42;;;;;;;24.52;17.85;;;;;;;12.04;63.23;102245.59;5045328;28;20040;-69
2022/03/16 08:58:08;;;;;;;28.77;18.27;;;;;;;12.04;63.06;102249.19;5037832;28;20025;-69
2022/03/16 09:00:33;;;;;;;23.77;16.35;;;;;;;12.27;61.19;102240.59;5034247;28;20107;-69
2022/03/16 09:02:58;;;;;;;24.42;16.83;;;;;;;12.45;59.53;102238.06;5039146;28;20080;-69
2022/03/16 09:05:24;;;;;;;24.65;17.05;;;;;;;12.79;59.55;102243.63;5043487;28;20475;-69
2022/03/16 09:07:50;;;;;;;23.73;16.85;;;;;;;13.10;57.95;102248.50;5027818;28;20098;-68
2022/03/16 09:10:15;;;;;;;24.23;17.42;;;;;;;13.56;57.27;102256.75;5031950;28;20464;-69
2022/03/16 09:12:41;;;;;;;26.15;16.77;;;;;;;13.91;55.29;102253.66;5043108;28;20107;-67
2022/03/16 09:15:06;;;;;;;24.13;17.85;;;;;;;14.10;54.62;102260.19;5039681;28;20037;-68
2022/03/16 09:17:33;;;;;;;22.83;15.85;;;;;;;14.15;53.46;102260.38;5049664;28;20036;-69
2022/03/16 09:19:58;;;;;;;26.42;17.20;;;;;;;13.74;53.97;102247.78;5046635;28;20219;-68
2022/03/16 09:22:24;;;;;;;23.27;16.60;;;;;;;14.31;53.91;102246.03;5044261;28;20040;-68
2022/03/16 09:24:49;;;;;;;28.58;17.02;;;;;;;15.28;52.01;102241.03;5022481;28;20025;-68
2022/03/16 09:27:16;;;;;;;25.75;16.05;;;;;;;16.00;49.54;102250.47;5024097;28;20057;-68
2022/03/16 09:29:43;;;;;;;22.67;15.82;;;;;;;16.29;47.33;102247.97;5030293;28;20022;-67
2022/03/16 09:32:10;;;;;;;24.60;16.55;;;;;;;16.45;46.66;102238.97;5038646;28;20033;-65
2022/03/16 09:34:40;;;;;;;24.25;16.25;;;;;;;16.67;45.61;102244.81;5044300;28;20025;-67
2022/03/16 09:37:06;;;;;;;23.85;17.27;;;;;;;16.38;45.28;102238.25;5032597;28;20426;-69
2022/03/16 09:39:31;;;;;;;24.10;16.77;;;;;;;16.71;45.35;102242.44;5042721;28;20147;-67
2022/03/16 09:41:59;;;;;;;24.48;16.85;;;;;;;17.11;44.91;102237.09;5024498;28;20068;-68
2022/03/16 09:44:25;;;;;;;23.05;16.08;;;;;;;17.55;43.56;102232.84;5037599;28;20056;-68
2022/03/16 09:46:54;;;;;;;25.38;17.95;;;;;;;17.53;43.25;102246.13;5033131;28;20025;-67
2022/03/16 09:49:20;;;;;;;24.73;17.10;;;;;;;17.64;43.66;102252.78;5040425;28;20361;-67
2022/03/16 09:51:46;;;;;;;26.23;18.17;;;;;;;17.83;43.53;102251.56;5042156;28;20043;-68
2022/03/16 09:54:11;;;;;;;23.58;17.00;;;;;;;17.57;42.45;102238.16;5043299;28;20372;-67
2022/03/16 09:56:38;;;;;;;22.65;17.08;;;;;;;18.23;43.46;102236.81;5038838;28;20029;-67
2022/03/16 09:59:03;;;;;;;24.77;18.25;;;;;;;18.72;41.37;102239.16;5040508;28;20026;-68
2022/03/16 10:01:29;;;;;;;23.33;17.38;;;;;;;19.08;40.13;102227.50;5039544;28;20387;-68
2022/03/16 10:04:06;;;;;;;23.00;16.92;;;;;;;19.11;40.63;102223.34;5041985;28;20033;-67
2022/03/16 10:06:34;;;;;;;25.50;17.55;;;;;;;19.47;40.41;102219.19;5039344;28;20531;-68
2022/03/16 10:15:10;;;;;;;24.52;17.63;;;;;;;19.79;40.19;102219.34;5043341;28;20068;-68
2022/03/16 10:17:43;;;;;;;22.88;17.38;;;;;;;20.65;38.70;102211.13;5043121;28;20071;-68
2022/03/16 10:20:19;;;;;;;25.17;17.33;;;;;;;21.32;36.46;102215.31;5042208;28;20437;-66
2022/03/16 10:22:52;;;;;;;25.10;17.02;;;;;;;21.49;37.27;102215.13;5043552;28;20049;-68
2022/03/16 10:25:18;;;;;;;29.52;19.27;;;;;;;21.96;35.12;102220.66;5042554;28;20025;-68
2022/03/16 10:27:43;;;;;;;26.52;18.30;;;;;;;22.51;34.08;102226.72;5043120;28;20039;-68
2022/03/16 10:30:09;;;;;;;26.50;18.93;;;;;;;22.15;34.39;102228.56;5043190;28;20033;-67
2022/03/16 10:32:34;;;;;;;25.40;18.63;;;;;;;21.89;34.72;102213.63;5043517;28;20279;-67
2022/03/16 10:35:07;;;;;;;29.30;20.90;;;;;;;21.93;35.22;102217.56;5042353;28;20028;-67
2022/03/16 10:37:36;;;;;;;25.50;18.77;;;;;;;22.20;35.11;102226.66;5043367;28;20061;-68
2022/03/16 10:40:15;;;;;;;23.20;17.45;;;;;;;22.25;33.82;102209.88;5039988;28;20136;-67
2022/03/16 10:48:17;;;;;;;23.52;18.58;;;;;;;21.15;36.63;102212.66;5042716;28;20035;-65
2022/03/16 10:50:43;;;;;;;24.38;17.10;;;;;;;21.34;36.34;102207.50;5041478;28;20191;-67
2022/03/16 10:53:17;;;;;;;23.63;16.92;;;;;;;21.49;35.04;102199.22;5057315;28;20427;-68
2022/03/16 10:55:43;;;;;;;27.52;18.80;;;;;;;21.86;34.88;102189.88;5039975;28;20087;-67
2022/03/16 10:58:11;;;;;;;28.67;19.98;;;;;;;22.01;34.63;102191.88;5042727;28;20529;-68
2022/03/16 11:00:38;;;;;;;24.50;18.35;;;;;;;21.82;34.51;102191.53;5043081;28;20414;-67
2022/03/16 11:03:15;;;;;;;24.90;18.73;;;;;;;21.99;34.43;102180.94;5041514;28;20041;-67
2022/03/16 11:05:41;;;;;;;22.30;16.37;;;;;;;21.58;34.74;102190.28;5040603;28;20121;-67
2022/03/16 11:08:08;;;;;;;21.55;17.08;;;;;;;21.32;35.70;102183.72;5043463;28;20089;-67
2022/03/16 11:10:36;;;;;;;25.42;18.13;;;;;;;20.81;36.50;102186.13;5038928;28;20025;-68
2022/03/16 11:15:50;;;;;;;23.38;17.45;;;;;;;19.21;38.88;102184.53;5046009;28;20040;-67
2022/03/16 11:18:17;;;;;;;23.70;16.80;;;;;;;19.18;40.09;102188.66;5042665;28;20055;-67
2022/03/16 11:20:43;;;;;;;22.58;16.83;;;;;;;18.54;41.65;102190.94;5040543;28;20099;-67
2022/03/16 11:26:18;;;;;;;22.60;16.40;;;;;;;17.37;44.54;102194.94;5041770;28;20083;-68